Time;durP1;ratioP1;P1;durP2;ratioP2;P2;SDS_P1;SDS_P2;PMS_P1;PMS_P2;Temp;Humidity;BMP_temperature;BMP_pressure;BME280_temperature;BME280_humidity;BME280_pressure;Samples;Min_cycle;Max_cycle;Signal;HPM_P1;HPM_P2
2023/07/18 00:01:50;;;;;;;0.00;0.00;;;16.80;79.80;;;;;;5009116;28;20053;-73
2023/07/18 00:04:15;;;;;;;0.00;0.00;;;16.80;79.60;;;;;;5009052;28;20037;-73
2023/07/18 00:06:42;;;;;;;0.00;0.00;;;16.80;79.90;;;;;;5009327;28;20084;-73
2023/07/18 00:09:08;;;;;;;0.00;0.00;;;16.70;80.10;;;;;;5009063;28;20050;-73
2023/07/18 00:11:33;;;;;;;0.00;0.00;;;16.80;80.10;;;;;;5009401;28;20058;-73
2023/07/18 00:13:59;;;;;;;0.00;0.00;;;16.70;80.50;;;;;;5009484;28;20041;-73
2023/07/18 00:16:25;;;;;;;0.08;0.08;;;16.70;80.40;;;;;;5009546;28;20050;-73
2023/07/18 00:18:50;;;;;;;0.05;0.05;;;16.70;80.90;;;;;;5009167;28;20120;-73
2023/07/18 00:21:16;;;;;;;0.00;0.00;;;16.70;81.00;;;;;;5005279;28;20055;-73
2023/07/18 00:23:42;;;;;;;0.00;0.00;;;16.70;81.10;;;;;;4989844;28;20085;-73
2023/07/18 00:26:08;;;;;;;0.00;0.00;;;16.70;81.00;;;;;;4989887;28;20047;-73
2023/07/18 00:28:34;;;;;;;0.00;0.00;;;16.70;81.00;;;;;;4989364;28;20686;-73
2023/07/18 00:31:01;;;;;;;0.00;0.00;;;16.60;81.00;;;;;;4973826;28;20149;-73
2023/07/18 00:33:27;;;;;;;0.00;0.00;;;16.60;80.70;;;;;;4993689;28;20519;-73
2023/07/18 00:35:52;;;;;;;0.00;0.00;;;16.70;80.80;;;;;;4993188;28;20090;-73
2023/07/18 00:38:20;;;;;;;0.00;0.00;;;16.60;80.80;;;;;;4993662;28;20050;-73
2023/07/18 00:40:48;;;;;;;0.00;0.00;;;16.60;80.80;;;;;;4993402;28;20498;-73
2023/07/18 00:43:14;;;;;;;0.00;0.00;;;16.70;80.90;;;;;;4993253;28;20474;-73
2023/07/18 00:45:41;;;;;;;0.00;0.00;;;16.70;80.80;;;;;;4993423;28;20086;-73
2023/07/18 00:48:07;;;;;;;0.00;0.00;;;16.70;80.70;;;;;;4993041;28;20044;-73
2023/07/18 00:50:33;;;;;;;0.00;0.00;;;16.70;80.80;;;;;;4993190;28;20149;-73
2023/07/18 00:53:00;;;;;;;0.00;0.00;;;16.70;80.90;;;;;;4976000;28;20411;-73
2023/07/18 00:55:27;;;;;;;0.00;0.00;;;16.70;80.80;;;;;;4993066;28;20133;-73
2023/07/18 00:57:53;;;;;;;0.00;0.00;;;16.70;80.70;;;;;;4998062;28;20080;-73
2023/07/18 01:00:22;;;;;;;0.00;0.00;;;16.70;80.70;;;;;;5012427;28;20053;-73
2023/07/18 01:02:49;;;;;;;0.00;0.00;;;16.70;80.70;;;;;;5012712;28;20060;-73
2023/07/18 01:05:19;;;;;;;0.00;0.00;;;16.60;80.70;;;;;;5012615;28;20050;-73
2023/07/18 01:07:46;;;;;;;0.00;0.00;;;16.60;80.70;;;;;;5012181;28;20045;-73
2023/07/18 01:10:23;;;;;;;0.00;0.00;;;16.60;80.70;;;;;;5012542;28;20053;-73
2023/07/18 01:12:58;;;;;;;0.00;0.00;;;16.60;80.60;;;;;;5010247;28;20053;-73
2023/07/18 01:15:26;;;;;;;0.00;0.00;;;16.60;80.60;;;;;;4978323;28;20522;-73
2023/07/18 01:17:52;;;;;;;0.00;0.00;;;16.60;80.60;;;;;;5012166;28;20535;-73
2023/07/18 01:20:21;;;;;;;0.00;0.00;;;16.60;80.60;;;;;;5012011;28;20088;-73
2023/07/18 01:22:49;;;;;;;0.00;0.00;;;16.60;80.70;;;;;;5012017;28;20045;-73
2023/07/18 01:25:16;;;;;;;0.00;0.00;;;16.50;80.80;;;;;;5011751;28;20503;-73
2023/07/18 01:27:43;;;;;;;0.00;0.00;;;16.50;80.80;;;;;;5011967;28;20590;-73
2023/07/18 01:30:09;;;;;;;0.00;0.00;;;16.50;80.90;;;;;;5011980;28;20042;-73
2023/07/18 01:32:35;;;;;;;0.00;0.00;;;16.50;80.90;;;;;;4977406;28;20089;-73
2023/07/18 01:35:05;;;;;;;0.00;0.00;;;16.50;81.10;;;;;;5012182;28;20077;-73
2023/07/18 01:37:32;;;;;;;0.00;0.00;;;16.50;81.10;;;;;;5011944;28;20038;-72
2023/07/18 01:39:59;;;;;;;0.00;0.00;;;16.50;81.10;;;;;;5011794;28;20045;-72
2023/07/18 01:42:24;;;;;;;0.00;0.00;;;16.50;81.30;;;;;;5011006;28;20085;-72
2023/07/18 01:44:50;;;;;;;0.00;0.00;;;16.50;81.10;;;;;;5011805;28;20455;-73
2023/07/18 01:47:15;;;;;;;0.00;0.00;;;16.40;81.30;;;;;;5012091;28;20042;-73
2023/07/18 01:49:41;;;;;;;0.00;0.00;;;16.50;81.20;;;;;;5011712;28;20056;-73
2023/07/18 01:52:07;;;;;;;0.00;0.00;;;16.50;81.30;;;;;;4998587;28;20074;-72
2023/07/18 01:54:33;;;;;;;0.00;0.00;;;16.50;81.50;;;;;;4992110;28;20561;-73
2023/07/18 01:56:58;;;;;;;0.00;0.00;;;16.50;81.60;;;;;;4991916;28;20056;-73
2023/07/18 01:59:24;;;;;;;0.00;0.00;;;16.50;81.60;;;;;;4991805;28;20054;-73
2023/07/18 02:01:51;;;;;;;0.00;0.00;;;16.50;81.70;;;;;;4958550;28;20046;-72
2023/07/18 02:04:18;;;;;;;0.00;0.00;;;16.50;81.90;;;;;;4992032;28;20413;-73
2023/07/18 02:06:43;;;;;;;0.00;0.00;;;16.50;81.80;;;;;;4992263;28;20121;-73
2023/07/18 02:09:10;;;;;;;0.00;0.00;;;16.50;81.80;;;;;;4991903;28;20446;-73
2023/07/18 02:11:35;;;;;;;0.00;0.00;;;16.50;81.90;;;;;;4991318;28;20058;-73
2023/07/18 02:14:03;;;;;;;0.00;0.00;;;16.50;82.20;;;;;;4992050;28;20054;-73
2023/07/18 02:16:29;;;;;;;0.00;0.00;;;16.50;82.20;;;;;;4991707;28;20090;-73
2023/07/18 02:19:00;;;;;;;0.00;0.00;;;16.40;82.40;;;;;;4991702;28;20483;-73
2023/07/18 02:21:25;;;;;;;0.00;0.00;;;16.50;82.40;;;;;;4991763;28;20419;-73
2023/07/18 02:23:51;;;;;;;0.00;0.00;;;16.50;82.20;;;;;;4976974;28;20046;-73
2023/07/18 02:26:16;;;;;;;0.00;0.00;;;16.40;82.30;;;;;;5003698;28;20038;-72
2023/07/18 02:28:42;;;;;;;0.00;0.00;;;16.30;82.60;;;;;;5006377;28;20077;-72
2023/07/18 02:31:07;;;;;;;0.00;0.00;;;16.40;82.70;;;;;;5007614;28;20042;-72
2023/07/18 02:33:33;;;;;;;0.00;0.00;;;16.30;82.90;;;;;;4992280;28;20132;-72
2023/07/18 02:35:59;;;;;;;0.00;0.00;;;16.30;82.80;;;;;;5003793;28;20054;-72
2023/07/18 02:38:25;;;;;;;0.00;0.00;;;16.30;82.90;;;;;;5011895;28;20045;-73
2023/07/18 02:40:51;;;;;;;0.00;0.00;;;16.30;82.70;;;;;;5011800;28;20054;-73
2023/07/18 02:43:17;;;;;;;0.00;0.00;;;16.30;82.40;;;;;;5011849;28;20069;-73
2023/07/18 02:45:43;;;;;;;0.00;0.00;;;16.30;82.70;;;;;;5026960;28;20752;-73
2023/07/18 02:48:08;;;;;;;0.00;0.00;;;16.30;82.60;;;;;;5011506;28;20510;-73
2023/07/18 02:50:35;;;;;;;0.00;0.00;;;16.30;82.80;;;;;;5011457;28;20077;-73
2023/07/18 02:53:00;;;;;;;0.00;0.00;;;16.20;82.60;;;;;;5011318;28;20138;-72
2023/07/18 02:55:27;;;;;;;0.00;0.00;;;16.20;82.90;;;;;;5011200;28;20132;-72
2023/07/18 02:57:53;;;;;;;0.00;0.00;;;16.20;82.90;;;;;;5005405;28;20129;-72
2023/07/18 03:00:25;;;;;;;0.00;0.00;;;16.10;82.90;;;;;;4973657;28;20515;-73
2023/07/18 03:02:51;;;;;;;0.00;0.00;;;16.20;83.00;;;;;;4990878;28;20050;-72
2023/07/18 03:05:18;;;;;;;0.13;0.13;;;16.20;83.40;;;;;;4990801;28;20399;-72
2023/07/18 03:07:46;;;;;;;0.00;0.00;;;16.10;83.60;;;;;;4990765;28;20050;-72
2023/07/18 03:10:13;;;;;;;0.00;0.00;;;16.10;84.10;;;;;;4991101;28;20058;-73
2023/07/18 03:12:40;;;;;;;0.00;0.00;;;16.10;83.80;;;;;;4967745;28;20128;-72
2023/07/18 03:15:10;;;;;;;0.00;0.00;;;16.10;83.60;;;;;;4983551;28;20495;-73
2023/07/18 03:17:36;;;;;;;0.00;0.00;;;16.20;84.10;;;;;;5009751;28;20056;-72
2023/07/18 03:20:16;;;;;;;0.00;0.00;;;16.20;84.00;;;;;;5009549;28;20084;-73
2023/07/18 03:22:45;;;;;;;0.00;0.00;;;16.20;83.90;;;;;;5009923;28;20045;-72
2023/07/18 03:25:11;;;;;;;0.00;0.00;;;16.20;83.70;;;;;;5010342;28;20046;-72
2023/07/18 03:27:37;;;;;;;0.00;0.00;;;16.20;83.80;;;;;;5010110;28;20050;-72
2023/07/18 03:30:06;;;;;;;0.00;0.00;;;16.20;83.70;;;;;;5009989;28;20060;-73
2023/07/18 03:32:32;;;;;;;0.00;0.00;;;16.30;83.90;;;;;;5010091;28;20499;-73
2023/07/18 03:34:57;;;;;;;0.00;0.00;;;16.20;83.80;;;;;;5010020;28;20169;-72
2023/07/18 03:37:23;;;;;;;0.00;0.00;;;16.20;83.70;;;;;;5010071;28;20046;-73
2023/07/18 03:39:48;;;;;;;0.00;0.00;;;16.20;83.80;;;;;;5009157;28;20041;-73
2023/07/18 03:42:14;;;;;;;0.00;0.00;;;16.20;84.00;;;;;;5009982;28;20050;-72
2023/07/18 03:44:41;;;;;;;0.00;0.00;;;16.20;84.10;;;;;;4992531;28;20046;-72
2023/07/18 03:47:07;;;;;;;0.00;0.00;;;16.20;84.20;;;;;;4992065;28;20867;-72
2023/07/18 03:49:32;;;;;;;0.00;0.00;;;16.20;84.30;;;;;;5009237;28;20054;-73
2023/07/18 03:51:58;;;;;;;0.00;0.00;;;16.20;84.10;;;;;;5009447;28;20057;-72
2023/07/18 03:54:24;;;;;;;0.00;0.00;;;16.30;84.10;;;;;;5009684;28;20049;-73
2023/07/18 03:56:50;;;;;;;0.00;0.00;;;16.30;84.10;;;;;;4991997;28;20129;-73
2023/07/18 03:59:16;;;;;;;0.00;0.00;;;16.30;84.10;;;;;;5009419;28;20053;-72
2023/07/18 04:01:41;;;;;;;0.00;0.00;;;16.30;84.10;;;;;;5009472;28;20399;-72
2023/07/18 04:04:07;;;;;;;0.00;0.00;;;16.30;84.10;;;;;;5009410;28;20057;-73
2023/07/18 04:06:33;;;;;;;0.00;0.00;;;16.30;84.20;;;;;;5009240;28;20049;-73
2023/07/18 04:08:58;;;;;;;0.00;0.00;;;16.30;84.10;;;;;;4975498;28;20486;-72
2023/07/18 04:11:24;;;;;;;0.00;0.00;;;16.30;84.10;;;;;;5009482;28;20069;-72
2023/07/18 04:13:50;;;;;;;0.00;0.00;;;16.30;84.10;;;;;;5008626;28;20380;-72
2023/07/18 04:16:15;;;;;;;0.00;0.00;;;16.30;84.20;;;;;;5008946;28;20053;-72
2023/07/18 04:18:41;;;;;;;0.00;0.00;;;16.30;84.20;;;;;;5008592;28;20042;-72
2023/07/18 04:21:07;;;;;;;0.00;0.00;;;16.40;84.30;;;;;;5008995;28;20050;-73
2023/07/18 04:23:32;;;;;;;0.00;0.00;;;16.40;84.30;;;;;;5009106;28;20463;-73
2023/07/18 04:26:00;;;;;;;0.00;0.00;;;16.40;84.30;;;;;;5009280;28;20042;-73
2023/07/18 04:28:27;;;;;;;0.00;0.00;;;16.50;84.50;;;;;;5003478;28;20038;-72
2023/07/18 04:30:54;;;;;;;0.00;0.00;;;16.50;84.50;;;;;;5008947;28;20112;-73
2023/07/18 04:33:19;;;;;;;0.00;0.00;;;16.50;84.50;;;;;;4992334;28;20045;-73
2023/07/18 04:35:45;;;;;;;0.00;0.00;;;16.60;84.40;;;;;;4992391;28;20061;-73
2023/07/18 04:38:15;;;;;;;0.00;0.00;;;16.60;84.40;;;;;;5010288;28;20061;-72
2023/07/18 04:40:41;;;;;;;0.00;0.00;;;16.60;84.40;;;;;;5009965;28;20042;-72
2023/07/18 04:43:07;;;;;;;0.00;0.00;;;16.70;84.40;;;;;;4998750;28;20046;-72
2023/07/18 04:45:33;;;;;;;0.00;0.00;;;16.60;84.40;;;;;;5009408;28;20042;-73
2023/07/18 04:47:59;;;;;;;0.00;0.00;;;16.70;84.40;;;;;;5007910;28;20042;-72
2023/07/18 04:50:25;;;;;;;0.00;0.00;;;16.80;84.40;;;;;;5009853;28;20085;-72
2023/07/18 04:52:51;;;;;;;0.00;0.00;;;16.80;84.50;;;;;;5009102;28;20132;-72
2023/07/18 04:55:17;;;;;;;0.00;0.00;;;16.80;84.60;;;;;;4990293;28;20053;-72
2023/07/18 04:57:43;;;;;;;0.00;0.00;;;16.80;84.50;;;;;;4990194;28;20874;-72
2023/07/18 05:00:10;;;;;;;0.00;0.00;;;16.80;84.60;;;;;;4997309;28;20100;-73
2023/07/18 05:02:36;;;;;;;0.00;0.00;;;16.80;84.80;;;;;;5008867;28;20126;-73
2023/07/18 05:05:02;;;;;;;0.00;0.00;;;16.90;84.80;;;;;;5009219;28;20066;-72
2023/07/18 05:07:27;;;;;;;0.00;0.00;;;16.90;84.90;;;;;;5009411;28;20073;-71
2023/07/18 05:09:53;;;;;;;0.00;0.00;;;17.00;85.00;;;;;;5008484;28;21719;-71
2023/07/18 05:12:19;;;;;;;0.00;0.00;;;17.10;85.00;;;;;;5009872;28;20053;-72
2023/07/18 05:14:44;;;;;;;0.00;0.00;;;17.10;85.10;;;;;;5008807;28;20540;-71
2023/07/18 05:17:10;;;;;;;0.00;0.00;;;17.10;85.00;;;;;;5001165;28;20045;-72
2023/07/18 05:19:35;;;;;;;0.00;0.00;;;17.10;85.10;;;;;;5005109;28;20048;-72
2023/07/18 05:22:01;;;;;;;0.00;0.00;;;17.10;85.50;;;;;;5011070;28;20384;-71
2023/07/18 05:24:27;;;;;;;0.00;0.00;;;17.20;85.50;;;;;;5000821;28;20110;-68
2023/07/18 05:26:52;;;;;;;0.00;0.00;;;17.20;85.60;;;;;;5009312;28;20132;-71
2023/07/18 05:29:18;;;;;;;0.00;0.00;;;17.30;85.40;;;;;;5009353;28;20046;-71
2023/07/18 05:31:44;;;;;;;0.00;0.00;;;17.30;85.50;;;;;;5004242;28;20053;-71
2023/07/18 05:34:09;;;;;;;0.00;0.00;;;17.40;85.90;;;;;;4994501;28;20145;-71
2023/07/18 05:36:35;;;;;;;0.00;0.00;;;17.50;86.20;;;;;;5010855;28;20089;-72
2023/07/18 05:39:02;;;;;;;0.00;0.00;;;17.60;86.40;;;;;;4992691;28;20046;-72
2023/07/18 05:41:28;;;;;;;0.00;0.00;;;17.60;86.40;;;;;;5011042;28;20073;-71
2023/07/18 05:43:53;;;;;;;0.00;0.00;;;17.60;86.20;;;;;;5011182;28;20041;-71
2023/07/18 05:46:19;;;;;;;0.03;0.03;;;17.70;86.30;;;;;;4993089;28;20076;-72
2023/07/18 05:48:45;;;;;;;0.00;0.00;;;17.70;86.30;;;;;;5008918;28;20037;-71
2023/07/18 05:51:10;;;;;;;0.00;0.00;;;17.70;86.40;;;;;;5008648;28;20125;-70
2023/07/18 05:53:36;;;;;;;0.00;0.00;;;17.80;86.60;;;;;;5010662;28;20084;-71
2023/07/18 05:56:02;;;;;;;0.00;0.00;;;17.80;86.70;;;;;;4991014;28;20484;-69
2023/07/18 05:58:27;;;;;;;0.00;0.00;;;17.80;86.80;;;;;;5010084;28;20038;-68
2023/07/18 06:00:53;;;;;;;0.00;0.00;;;17.80;86.40;;;;;;5009651;28;20085;-69
2023/07/18 06:03:18;;;;;;;0.00;0.00;;;17.90;86.40;;;;;;5010967;28;20049;-70
2023/07/18 06:05:44;;;;;;;0.00;0.00;;;18.10;86.10;;;;;;5011107;28;20088;-70
2023/07/18 06:08:10;;;;;;;0.00;0.00;;;18.10;86.10;;;;;;5011283;28;20057;-70
2023/07/18 06:10:37;;;;;;;0.00;0.00;;;18.20;86.00;;;;;;5010866;28;20132;-70
2023/07/18 06:13:02;;;;;;;0.00;0.00;;;18.30;86.10;;;;;;5011401;28;20165;-70
2023/07/18 06:15:28;;;;;;;0.00;0.00;;;18.30;86.00;;;;;;5011150;28;20074;-69
2023/07/18 06:17:53;;;;;;;0.05;0.05;;;18.40;85.80;;;;;;5010885;28;20038;-69
2023/07/18 06:20:20;;;;;;;0.00;0.00;;;18.50;85.20;;;;;;4977144;28;20117;-70
2023/07/18 06:22:47;;;;;;;0.00;0.00;;;18.60;85.30;;;;;;5011009;28;20053;-70
2023/07/18 06:25:14;;;;;;;0.00;0.00;;;18.60;85.50;;;;;;5010603;28;20499;-73
2023/07/18 06:27:39;;;;;;;0.00;0.00;;;18.70;85.30;;;;;;5009853;28;20538;-72
2023/07/18 06:30:06;;;;;;;0.00;0.00;;;19.00;84.00;;;;;;4992169;28;20046;-73
2023/07/18 06:32:31;;;;;;;0.00;0.00;;;19.30;83.10;;;;;;5010698;28;20089;-69
2023/07/18 06:34:57;;;;;;;0.00;0.00;;;19.60;82.50;;;;;;5006365;28;20475;-69
2023/07/18 06:37:22;;;;;;;0.00;0.00;;;19.60;82.30;;;;;;5000986;28;20053;-70
2023/07/18 06:39:50;;;;;;;0.00;0.00;;;19.60;82.20;;;;;;4991979;28;20043;-67
2023/07/18 06:42:16;;;;;;;0.00;0.00;;;19.60;82.00;;;;;;4997945;28;20046;-70
2023/07/18 06:44:42;;;;;;;0.05;0.05;;;19.60;81.50;;;;;;4997834;28;20038;-68
2023/07/18 06:47:07;;;;;;;0.00;0.00;;;19.60;81.10;;;;;;4999738;28;20050;-68
2023/07/18 06:49:33;;;;;;;0.00;0.00;;;19.60;81.10;;;;;;4998987;28;20052;-69
2023/07/18 06:51:59;;;;;;;0.00;0.00;;;19.60;81.20;;;;;;5001402;28;20042;-69
2023/07/18 06:54:24;;;;;;;0.00;0.00;;;19.60;81.50;;;;;;4997308;28;20041;-70
2023/07/18 06:56:50;;;;;;;0.00;0.00;;;19.50;81.90;;;;;;5000758;28;20133;-70
2023/07/18 06:59:15;;;;;;;0.00;0.00;;;19.50;82.10;;;;;;4999739;28;20045;-70
2023/07/18 07:01:42;;;;;;;0.00;0.00;;;19.40;81.60;;;;;;4997396;28;20490;-70
2023/07/18 07:04:08;;;;;;;0.00;0.00;;;19.50;82.20;;;;;;4998133;28;20038;-69
2023/07/18 07:06:41;;;;;;;0.00;0.00;;;19.40;82.10;;;;;;4997464;28;20053;-70
2023/07/18 07:09:07;;;;;;;0.00;0.00;;;19.40;82.20;;;;;;4995626;28;20052;-70
2023/07/18 07:11:34;;;;;;;0.00;0.00;;;19.30;82.50;;;;;;4998068;28;20054;-70
2023/07/18 07:13:59;;;;;;;0.00;0.00;;;19.30;82.60;;;;;;4996768;28;20126;-70
2023/07/18 07:16:25;;;;;;;0.00;0.00;;;19.30;82.30;;;;;;4998155;28;21421;-70
2023/07/18 07:18:50;;;;;;;0.00;0.00;;;19.30;82.60;;;;;;4997827;28;20046;-70
2023/07/18 07:21:16;;;;;;;0.08;0.08;;;19.40;82.40;;;;;;4997862;28;20042;-69
2023/07/18 07:23:42;;;;;;;0.00;0.00;;;19.40;82.40;;;;;;4998163;28;20081;-70
2023/07/18 07:26:08;;;;;;;0.00;0.00;;;19.40;82.60;;;;;;4999430;28;20058;-69
2023/07/18 07:28:35;;;;;;;0.00;0.00;;;19.50;82.60;;;;;;4998203;28;20139;-70
2023/07/18 07:31:03;;;;;;;0.00;0.00;;;19.50;82.80;;;;;;4996927;28;20125;-70
2023/07/18 07:33:29;;;;;;;0.00;0.00;;;19.60;82.70;;;;;;4997663;28;20530;-69
2023/07/18 07:35:54;;;;;;;0.00;0.00;;;19.70;82.40;;;;;;4997339;28;20046;-69
2023/07/18 07:38:20;;;;;;;0.00;0.00;;;19.70;82.10;;;;;;4963403;28;20045;-70
2023/07/18 07:40:46;;;;;;;0.00;0.00;;;19.80;81.60;;;;;;4996373;28;20034;-70
2023/07/18 07:43:11;;;;;;;0.00;0.00;;;19.80;81.50;;;;;;4979131;28;20107;-69
2023/07/18 07:45:37;;;;;;;0.00;0.00;;;19.80;80.80;;;;;;4997946;28;21163;-70
2023/07/18 07:48:02;;;;;;;0.00;0.00;;;19.80;80.30;;;;;;4998655;28;20095;-69
2023/07/18 07:50:28;;;;;;;0.00;0.00;;;19.90;80.20;;;;;;4995008;28;20636;-68
2023/07/18 07:52:54;;;;;;;0.00;0.00;;;19.90;80.00;;;;;;4994566;28;20042;-68
2023/07/18 07:55:19;;;;;;;0.00;0.00;;;19.90;80.10;;;;;;4980137;28;20132;-69
2023/07/18 07:57:45;;;;;;;0.00;0.00;;;19.80;79.70;;;;;;4997004;28;20038;-69
2023/07/18 08:00:11;;;;;;;0.00;0.00;;;19.80;80.00;;;;;;4997692;28;20478;-69
2023/07/18 08:02:37;;;;;;;0.10;0.10;;;19.90;80.10;;;;;;4996466;28;20049;-70
2023/07/18 08:05:03;;;;;;;0.00;0.00;;;19.90;79.60;;;;;;5011841;28;20038;-70
2023/07/18 08:07:29;;;;;;;0.00;0.00;;;20.00;79.40;;;;;;4997112;28;20154;-70
2023/07/18 08:09:55;;;;;;;0.00;0.00;;;20.00;79.20;;;;;;4995145;28;20109;-69
2023/07/18 08:12:21;;;;;;;0.00;0.00;;;20.00;78.50;;;;;;4996518;28;20117;-69
2023/07/18 08:14:48;;;;;;;0.00;0.00;;;20.00;78.20;;;;;;4996338;28;20052;-69
2023/07/18 08:17:14;;;;;;;0.00;0.00;;;19.90;78.30;;;;;;4998668;28;20490;-69
2023/07/18 08:19:40;;;;;;;0.00;0.00;;;19.90;77.80;;;;;;4997079;28;20065;-69
2023/07/18 08:22:07;;;;;;;0.00;0.00;;;19.90;77.90;;;;;;4961420;28;20037;-69
2023/07/18 08:24:33;;;;;;;0.00;0.00;;;19.90;78.20;;;;;;4997680;28;20117;-69
2023/07/18 08:26:59;;;;;;;0.00;0.00;;;19.80;77.90;;;;;;4996889;28;20145;-69
2023/07/18 08:29:27;;;;;;;0.00;0.00;;;19.80;78.00;;;;;;4997972;28;20033;-69
2023/07/18 08:31:54;;;;;;;0.00;0.00;;;19.80;77.90;;;;;;4997353;28;20037;-70
2023/07/18 08:34:20;;;;;;;0.00;0.00;;;19.70;78.40;;;;;;4997376;28;20553;-69
2023/07/18 08:36:47;;;;;;;0.00;0.00;;;19.60;78.70;;;;;;4996152;28;20041;-70
2023/07/18 08:39:13;;;;;;;0.00;0.00;;;19.60;79.00;;;;;;4997235;28;20121;-69
2023/07/18 08:41:44;;;;;;;0.10;0.10;;;19.70;79.40;;;;;;4995632;28;20047;-69
2023/07/18 08:44:15;;;;;;;0.00;0.00;;;19.70;79.90;;;;;;4993096;28;20387;-69
2023/07/18 08:46:47;;;;;;;0.32;0.32;;;19.80;79.90;;;;;;4998105;28;20034;-68
2023/07/18 08:49:14;;;;;;;0.00;0.00;;;19.90;80.10;;;;;;4997314;28;20051;-68
2023/07/18 08:51:44;;;;;;;0.00;0.00;;;20.00;79.70;;;;;;4994826;28;20750;-68
2023/07/18 08:54:10;;;;;;;0.00;0.00;;;20.00;78.90;;;;;;5000759;28;20054;-69
2023/07/18 08:56:45;;;;;;;0.00;0.00;;;20.10;78.60;;;;;;5001092;28;20081;-68
2023/07/18 08:59:12;;;;;;;0.20;0.20;;;20.20;78.00;;;;;;4999996;28;20050;-69
2023/07/18 09:01:51;;;;;;;0.00;0.00;;;20.30;77.60;;;;;;5000026;28;20049;-69
2023/07/18 09:04:18;;;;;;;0.43;0.28;;;20.30;76.60;;;;;;5000603;28;20034;-69
2023/07/18 09:06:59;;;;;;;0.00;0.00;;;20.40;75.90;;;;;;5000931;28;20050;-68
2023/07/18 09:09:25;;;;;;;0.00;0.00;;;20.50;75.90;;;;;;4996820;28;20614;-69
2023/07/18 09:11:57;;;;;;;0.00;0.00;;;20.60;76.30;;;;;;5000562;28;20041;-68
2023/07/18 09:14:31;;;;;;;0.25;0.25;;;20.70;75.90;;;;;;4997691;28;20056;-69
2023/07/18 09:16:59;;;;;;;0.00;0.00;;;20.80;76.00;;;;;;5000796;28;20038;-68
2023/07/18 09:19:46;;;;;;;0.00;0.00;;;20.90;74.80;;;;;;4999406;28;20042;-69
2023/07/18 09:22:13;;;;;;;1.08;0.68;;;20.90;75.10;;;;;;5000703;28;20050;-69
2023/07/18 09:24:41;;;;;;;0.00;0.00;;;21.10;75.70;;;;;;4983030;28;20081;-69
2023/07/18 09:27:15;;;;;;;0.00;0.00;;;21.10;74.70;;;;;;5000410;28;20101;-69
2023/07/18 09:29:46;;;;;;;0.00;0.00;;;21.20;74.70;;;;;;4982219;28;20096;-70
2023/07/18 09:32:16;;;;;;;0.00;0.00;;;21.10;74.40;;;;;;5000485;28;20075;-70
2023/07/18 09:35:00;;;;;;;0.03;0.03;;;21.10;74.20;;;;;;4997892;28;20049;-70
2023/07/18 09:37:26;;;;;;;0.00;0.00;;;21.00;74.10;;;;;;4998502;28;20481;-70
2023/07/18 09:39:54;;;;;;;0.00;0.00;;;21.00;73.40;;;;;;4999804;28;20037;-69
2023/07/18 09:42:21;;;;;;;0.63;0.30;;;21.00;73.80;;;;;;4997618;28;20515;-69
2023/07/18 09:44:49;;;;;;;0.05;0.05;;;21.10;73.40;;;;;;5006517;28;20085;-70
2023/07/18 09:47:16;;;;;;;0.00;0.00;;;21.00;74.30;;;;;;5018008;28;20073;-70
2023/07/18 09:49:45;;;;;;;0.00;0.00;;;20.90;74.30;;;;;;5010220;28;20112;-69
2023/07/18 09:52:11;;;;;;;0.00;0.00;;;20.90;74.70;;;;;;4992690;28;21696;-70
2023/07/18 09:54:38;;;;;;;0.10;0.10;;;20.90;74.60;;;;;;5010593;28;20049;-70
2023/07/18 09:57:09;;;;;;;0.28;0.25;;;20.90;74.50;;;;;;5011270;28;20120;-70
2023/07/18 09:59:39;;;;;;;0.00;0.00;;;20.80;74.60;;;;;;5011140;28;20548;-69
2023/07/18 10:02:06;;;;;;;0.00;0.00;;;20.70;73.60;;;;;;5010541;28;20529;-70
2023/07/18 10:04:34;;;;;;;0.00;0.00;;;20.70;73.60;;;;;;5009745;28;20045;-70
2023/07/18 10:07:02;;;;;;;0.00;0.00;;;20.70;73.40;;;;;;5011072;28;20042;-69
2023/07/18 10:09:28;;;;;;;0.00;0.00;;;20.80;73.80;;;;;;5008422;28;20129;-70
2023/07/18 10:12:03;;;;;;;0.00;0.00;;;20.90;73.50;;;;;;5010792;28;20092;-69
2023/07/18 10:14:41;;;;;;;0.00;0.00;;;21.00;73.20;;;;;;5010417;28;20077;-69
2023/07/18 10:17:07;;;;;;;0.00;0.00;;;21.10;73.60;;;;;;5010854;28;20116;-70
2023/07/18 10:19:46;;;;;;;0.00;0.00;;;21.00;73.40;;;;;;5010496;28;20053;-69
2023/07/18 10:22:23;;;;;;;0.00;0.00;;;21.00;73.10;;;;;;5010438;28;20046;-70
2023/07/18 10:24:49;;;;;;;0.00;0.00;;;20.80;71.80;;;;;;5009028;28;20053;-68
2023/07/18 10:27:14;;;;;;;0.00;0.00;;;20.80;72.70;;;;;;5006306;28;20049;-71
2023/07/18 10:29:41;;;;;;;0.08;0.08;;;20.60;73.10;;;;;;5004640;28;20063;-71
2023/07/18 10:32:10;;;;;;;0.10;0.10;;;20.60;73.40;;;;;;5008268;28;20054;-69
2023/07/18 10:34:39;;;;;;;0.00;0.00;;;20.60;73.50;;;;;;5009388;28;20038;-70
2023/07/18 10:37:09;;;;;;;0.00;0.00;;;20.70;74.00;;;;;;5009861;28;20053;-70
2023/07/18 10:39:40;;;;;;;0.00;0.00;;;20.60;73.60;;;;;;5010804;28;20057;-69
2023/07/18 10:42:26;;;;;;;0.00;0.00;;;20.50;73.60;;;;;;5010731;28;20056;-70
2023/07/18 10:44:57;;;;;;;0.00;0.00;;;20.50;73.70;;;;;;4997170;28;20038;-70
2023/07/18 10:47:23;;;;;;;0.35;0.35;;;20.50;73.70;;;;;;5009268;28;20136;-70
2023/07/18 10:49:49;;;;;;;0.00;0.00;;;20.50;73.70;;;;;;5009993;28;20498;-70
2023/07/18 10:52:16;;;;;;;0.00;0.00;;;20.50;74.10;;;;;;5009886;28;20103;-69
2023/07/18 10:54:50;;;;;;;0.00;0.00;;;20.40;74.30;;;;;;5008991;28;20085;-70
2023/07/18 10:57:22;;;;;;;0.00;0.00;;;20.40;74.50;;;;;;5009602;28;20115;-71
2023/07/18 10:59:48;;;;;;;6.45;2.42;;;20.40;74.80;;;;;;5008463;28;20038;-69
2023/07/18 11:02:13;;;;;;;0.00;0.00;;;20.40;74.50;;;;;;5009925;28;20077;-70
2023/07/18 11:04:39;;;;;;;0.00;0.00;;;20.40;73.90;;;;;;5010020;28;20384;-70
2023/07/18 11:07:05;;;;;;;0.00;0.00;;;20.50;74.00;;;;;;5005947;28;20049;-70
2023/07/18 11:09:32;;;;;;;0.00;0.00;;;20.40;73.80;;;;;;5009931;28;20048;-70
2023/07/18 11:11:58;;;;;;;0.00;0.00;;;20.40;73.70;;;;;;5009689;28;20387;-70
2023/07/18 11:14:40;;;;;;;0.00;0.00;;;20.50;74.10;;;;;;4997929;28;20050;-69
2023/07/18 11:17:13;;;;;;;0.00;0.00;;;20.50;73.90;;;;;;5009653;28;20562;-70
2023/07/18 11:19:39;;;;;;;0.00;0.00;;;20.50;74.20;;;;;;4998871;28;20883;-70
2023/07/18 11:22:06;;;;;;;0.00;0.00;;;20.50;74.00;;;;;;4990527;28;20046;-70
2023/07/18 11:24:32;;;;;;;0.08;0.08;;;20.50;74.30;;;;;;4973105;28;20046;-70
2023/07/18 11:27:18;;;;;;;0.00;0.00;;;20.50;73.60;;;;;;5004853;28;20053;-70
2023/07/18 11:29:58;;;;;;;0.00;0.00;;;20.50;73.70;;;;;;5009048;28;20715;-70
2023/07/18 11:32:49;;;;;;;0.00;0.00;;;20.50;73.80;;;;;;5008882;28;20057;-70
2023/07/18 11:35:18;;;;;;;;;;;20.60;74.20;;;;;;5004769;28;20054;-71
2023/07/18 11:37:46;;;;;;;0.10;0.10;;;20.70;74.20;;;;;;5003912;28;20039;-71
2023/07/18 11:40:23;;;;;;;0.00;0.00;;;20.70;74.00;;;;;;5007192;28;20041;-71
2023/07/18 11:42:49;;;;;;;0.00;0.00;;;20.80;74.00;;;;;;4990446;28;20093;-71
2023/07/18 11:45:20;;;;;;;0.00;0.00;;;20.90;74.10;;;;;;5007994;28;20057;-71
2023/07/18 11:47:48;;;;;;;0.17;0.10;;;21.10;74.10;;;;;;5008723;28;20041;-71
2023/07/18 11:50:15;;;;;;;0.00;0.00;;;21.10;73.50;;;;;;5009001;28;20439;-71
2023/07/18 11:52:44;;;;;;;0.00;0.00;;;21.40;73.70;;;;;;5007568;28;20057;-71
2023/07/18 11:55:10;;;;;;;0.00;0.00;;;21.50;72.40;;;;;;5006013;28;20060;-71
2023/07/18 11:57:36;;;;;;;0.00;0.00;;;21.60;72.50;;;;;;5007356;28;20045;-71
2023/07/18 12:00:02;;;;;;;0.00;0.00;;;21.80;72.40;;;;;;5006955;28;20092;-71
2023/07/18 12:02:27;;;;;;;0.00;0.00;;;22.00;70.90;;;;;;5007863;28;20099;-72
2023/07/18 12:04:55;;;;;;;0.13;0.13;;;22.10;70.30;;;;;;5007395;28;20041;-72
2023/07/18 12:07:20;;;;;;;0.00;0.00;;;22.20;67.90;;;;;;5007567;28;20376;-71
2023/07/18 12:09:46;;;;;;;0.00;0.00;;;22.40;68.90;;;;;;5008833;28;20046;-71
2023/07/18 12:12:11;;;;;;;0.00;0.00;;;22.60;69.10;;;;;;5008563;28;20477;-71
2023/07/18 12:14:37;;;;;;;0.00;0.00;;;22.80;68.00;;;;;;5007882;28;20092;-71
2023/07/18 12:17:02;;;;;;;0.35;0.35;;;22.90;64.70;;;;;;5008768;28;20502;-71
2023/07/18 12:19:28;;;;;;;0.00;0.00;;;23.10;67.00;;;;;;5008591;28;20084;-72
2023/07/18 12:21:54;;;;;;;0.00;0.00;;;23.10;64.20;;;;;;5009020;28;20045;-72
2023/07/18 12:24:19;;;;;;;0.00;0.00;;;23.30;64.00;;;;;;5008975;28;20053;-72
2023/07/18 12:26:45;;;;;;;0.00;0.00;;;23.40;62.90;;;;;;5009405;28;20577;-71
2023/07/18 12:29:15;;;;;;;0.40;0.20;;;23.40;60.80;;;;;;5012440;28;20042;-71
2023/07/18 12:31:45;;;;;;;0.00;0.00;;;23.50;63.30;;;;;;5012126;28;20096;-71
2023/07/18 12:34:10;;;;;;;0.00;0.00;;;23.60;61.00;;;;;;5011674;28;20111;-71
2023/07/18 12:36:37;;;;;;;0.00;0.00;;;23.80;59.90;;;;;;5012428;28;20458;-72
2023/07/18 12:39:03;;;;;;;0.00;0.00;;;23.90;59.00;;;;;;5007891;28;20061;-72
2023/07/18 12:41:28;;;;;;;0.00;0.00;;;24.10;60.10;;;;;;5013121;28;20042;-71
2023/07/18 12:43:54;;;;;;;0.00;0.00;;;24.20;57.50;;;;;;5012169;28;20201;-71
2023/07/18 12:46:26;;;;;;;0.00;0.00;;;24.40;61.40;;;;;;5012125;28;20387;-72
2023/07/18 12:48:54;;;;;;;0.00;0.00;;;24.50;58.70;;;;;;5012244;28;20056;-71